createdAt,value
2018-02-13T00:01:11.853Z,90.70
2018-02-13T00:03:45.562Z,90.70
2018-02-13T00:06:22.583Z,90.80
2018-02-13T00:09:03.477Z,90.80
2018-02-13T00:11:36.848Z,90.80
2018-02-13T00:14:10.758Z,90.80
2018-02-13T00:16:50.192Z,90.90
2018-02-13T00:19:27.869Z,90.90
2018-02-13T00:22:09.243Z,91.00
2018-02-13T00:24:49.579Z,91.00
2018-02-13T00:27:26.827Z,91.10
2018-02-13T00:30:04.462Z,91.10
2018-02-13T00:32:44.989Z,91.20
2018-02-13T00:35:24.571Z,91.40
2018-02-13T00:38:03.115Z,91.40
2018-02-13T00:40:42.509Z,91.50
2018-02-13T00:43:20.070Z,91.60
2018-02-13T00:46:00.454Z,91.60
2018-02-13T00:48:40.462Z,91.50
2018-02-13T00:51:18.994Z,91.50
2018-02-13T00:53:57.416Z,91.50
2018-02-13T00:56:37.449Z,91.70
2018-02-13T00:59:12.908Z,91.70
2018-02-13T01:01:46.132Z,91.80
2018-02-13T01:04:23.100Z,92.00
2018-02-13T01:07:01.868Z,92.30
2018-02-13T01:09:40.662Z,92.00
2018-02-13T01:12:18.457Z,92.10
2018-02-13T01:14:51.578Z,92.10
2018-02-13T01:17:24.760Z,92.00
2018-02-13T01:19:57.317Z,92.00
2018-02-13T01:22:36.470Z,92.40
2018-02-13T01:25:10.216Z,92.10
2018-02-13T01:27:50.782Z,92.00
2018-02-13T01:30:25.282Z,92.10
2018-02-13T01:32:59.610Z,92.10
2018-02-13T01:35:39.284Z,92.20
2018-02-13T01:38:17.281Z,92.60
2018-02-13T01:40:56.750Z,92.30
2018-02-13T01:43:37.343Z,92.30
2018-02-13T01:46:15.101Z,92.30
2018-02-13T01:48:48.919Z,92.30
2018-02-13T01:51:30.956Z,92.40
2018-02-13T01:54:10.312Z,92.30
2018-02-13T01:56:43.756Z,92.40
2018-02-13T01:59:17.431Z,92.40
2018-02-13T02:01:51.474Z,92.40
2018-02-13T02:04:29.607Z,92.60
2018-02-13T02:07:11.009Z,92.60
2018-02-13T02:09:48.953Z,92.70
2018-02-13T02:12:27.015Z,92.70
2018-02-13T02:15:05.774Z,92.70
2018-02-13T02:17:44.117Z,92.80
2018-02-13T02:20:21.370Z,92.90
2018-02-13T02:22:59.762Z,93.00
2018-02-13T02:25:41.863Z,93.00
2018-02-13T02:28:20.393Z,93.10
2018-02-13T02:30:59.735Z,93.10
2018-02-13T02:33:38.654Z,93.20
2018-02-13T02:36:19.550Z,93.20
2018-02-13T02:38:58.291Z,93.20
2018-02-13T02:41:31.012Z,93.20
2018-02-13T02:44:09.523Z,93.20
2018-02-13T02:46:47.836Z,93.20
2018-02-13T02:49:25.521Z,93.20
2018-02-13T02:52:09.328Z,93.20
2018-02-13T02:54:49.469Z,93.20
2018-02-13T02:57:29.001Z,93.40
2018-02-13T03:00:08.296Z,93.40
2018-02-13T03:02:50.530Z,93.40
2018-02-13T03:05:27.769Z,93.40
2018-02-13T03:08:05.807Z,93.60
2018-02-13T03:10:43.472Z,93.60
2018-02-13T03:13:23.642Z,93.70
2018-02-13T03:16:02.983Z,94.00
2018-02-13T03:18:42.241Z,93.80
2018-02-13T03:21:20.548Z,93.80
2018-02-13T03:23:57.441Z,93.70
2018-02-13T03:26:34.247Z,94.00
2018-02-13T03:29:13.550Z,93.90
2018-02-13T03:31:53.455Z,93.90
2018-02-13T03:34:32.548Z,93.70
2018-02-13T03:37:10.106Z,93.70
2018-02-13T03:39:49.043Z,93.70
2018-02-13T03:42:22.086Z,93.70
2018-02-13T03:45:00.454Z,94.10
2018-02-13T03:47:37.789Z,94.00
2018-02-13T03:50:16.833Z,94.20
2018-02-13T03:52:56.147Z,94.20
2018-02-13T03:55:35.109Z,94.50
2018-02-13T03:58:12.095Z,94.40
2018-02-13T04:00:51.655Z,94.50
2018-02-13T04:03:28.584Z,94.70
2018-02-13T04:06:08.502Z,94.70
2018-02-13T04:08:49.232Z,94.70
2018-02-13T04:11:26.614Z,94.60
2018-02-13T04:14:04.500Z,94.50
2018-02-13T04:16:43.264Z,94.50
2018-02-13T04:19:22.294Z,94.40
2018-02-13T04:22:01.282Z,94.40
2018-02-13T04:24:39.642Z,94.20
2018-02-13T04:27:18.040Z,94.20
2018-02-13T04:29:56.708Z,94.20
2018-02-13T04:32:38.076Z,94.10
2018-02-13T04:35:12.088Z,94.10
2018-02-13T04:37:52.303Z,94.00
2018-02-13T04:40:30.802Z,94.10
2018-02-13T04:43:08.734Z,94.10
2018-02-13T04:45:47.881Z,94.00
2018-02-13T04:48:25.982Z,94.00
2018-02-13T04:51:04.427Z,94.10
2018-02-13T04:53:43.040Z,94.10
2018-02-13T04:56:20.895Z,94.10
2018-02-13T04:58:58.134Z,94.10
2018-02-13T05:01:37.306Z,94.10
2018-02-13T05:04:17.928Z,94.10
2018-02-13T05:06:51.258Z,94.10
2018-02-13T05:09:28.827Z,94.10
2018-02-13T05:12:07.383Z,94.10
2018-02-13T05:14:47.966Z,94.10
2018-02-13T05:17:26.664Z,94.10
2018-02-13T05:20:05.635Z,94.10
2018-02-13T05:22:43.393Z,94.00
2018-02-13T05:25:17.133Z,93.90
2018-02-13T05:27:56.147Z,93.90
2018-02-13T05:30:35.200Z,94.10
2018-02-13T05:33:14.148Z,94.10
2018-02-13T05:35:52.561Z,94.10
2018-02-13T05:38:31.984Z,93.90
2018-02-13T05:41:10.327Z,94.00
2018-02-13T05:43:48.957Z,94.00
2018-02-13T05:46:26.042Z,93.90
2018-02-13T05:49:06.602Z,93.90
2018-02-13T05:51:46.707Z,93.80
2018-02-13T05:54:36.057Z,93.80
2018-02-13T05:57:10.781Z,93.80
2018-02-13T05:59:48.330Z,93.80
2018-02-13T06:02:27.377Z,93.70
2018-02-13T06:05:01.363Z,93.80
2018-02-13T06:07:41.500Z,93.80
2018-02-13T06:10:15.859Z,93.80
2018-02-13T06:12:50.305Z,93.80
2018-02-13T06:15:23.460Z,93.70
2018-02-13T06:18:01.051Z,93.80
2018-02-13T06:20:39.851Z,93.80
2018-02-13T06:23:19.368Z,93.70
2018-02-13T06:25:56.865Z,93.70
2018-02-13T06:28:35.451Z,93.80
2018-02-13T06:31:08.303Z,93.80
2018-02-13T06:33:49.184Z,93.50
2018-02-13T06:36:29.844Z,93.50
2018-02-13T06:39:08.224Z,93.50
2018-02-13T06:41:47.008Z,93.40
2018-02-13T06:44:21.547Z,93.40
2018-02-13T06:47:01.409Z,93.20
2018-02-13T06:49:36.392Z,93.20
2018-02-13T06:52:10.388Z,93.20
2018-02-13T06:54:43.716Z,93.20
2018-02-13T06:57:24.567Z,93.30
2018-02-13T06:59:59.639Z,93.40
2018-02-13T07:02:38.300Z,93.20
2018-02-13T07:05:16.036Z,93.20
2018-02-13T07:07:55.389Z,93.20
2018-02-13T07:10:34.287Z,93.10
2018-02-13T07:13:08.407Z,93.10
2018-02-13T07:15:47.449Z,93.00
2018-02-13T07:18:26.607Z,93.10
2018-02-13T07:21:05.977Z,93.10
2018-02-13T07:23:42.691Z,93.10
2018-02-13T07:26:24.151Z,93.00
2018-02-13T07:29:03.870Z,92.80
2018-02-13T07:31:43.194Z,92.80
2018-02-13T07:34:21.772Z,92.50
2018-02-13T07:36:56.152Z,92.50
2018-02-13T07:39:35.916Z,92.40
2018-02-13T07:42:15.041Z,92.30
2018-02-13T07:44:55.127Z,92.40
2018-02-13T07:47:35.698Z,92.30
2018-02-13T07:50:10.362Z,92.60
2018-02-13T07:52:49.494Z,92.10
2018-02-13T07:55:29.388Z,91.90
2018-02-13T07:58:09.727Z,91.70
2018-02-13T08:00:47.898Z,91.50
2018-02-13T08:03:30.104Z,91.30
2018-02-13T08:06:11.080Z,91.30
2018-02-13T08:08:50.449Z,91.20
2018-02-13T08:11:31.251Z,91.10
2018-02-13T08:14:11.671Z,90.80
2018-02-13T08:16:45.346Z,90.80
2018-02-13T08:19:19.661Z,90.70
2018-02-13T08:21:57.932Z,90.80
2018-02-13T08:24:38.195Z,90.50
2018-02-13T08:27:18.290Z,90.10
2018-02-13T08:29:56.504Z,90.10
2018-02-13T08:32:36.311Z,90.10
2018-02-13T08:35:20.763Z,89.20
2018-02-13T08:38:00.685Z,88.90
2018-02-13T08:40:35.071Z,88.90
2018-02-13T08:43:15.899Z,88.50
2018-02-13T08:45:52.670Z,88.10
2018-02-13T08:48:31.432Z,88.00
2018-02-13T08:51:06.700Z,87.90
2018-02-13T08:53:44.666Z,87.70
2018-02-13T08:56:24.412Z,87.50
2018-02-13T08:59:03.623Z,87.00
2018-02-13T09:01:46.059Z,86.70
2018-02-13T09:04:20.084Z,86.70
2018-02-13T09:06:54.470Z,85.80
2018-02-13T09:09:35.314Z,85.20
2018-02-13T09:12:18.748Z,84.20
2018-02-13T09:14:58.794Z,82.50
2018-02-13T09:17:37.622Z,81.10
2018-02-13T09:20:15.980Z,79.50
2018-02-13T09:22:58.894Z,77.30
2018-02-13T09:25:36.360Z,77.30
2018-02-13T09:28:17.743Z,75.30
2018-02-13T09:30:52.743Z,71.60
2018-02-13T09:33:32.542Z,71.50
2018-02-13T09:36:08.052Z,71.70
2018-02-13T09:38:48.374Z,71.70
2018-02-13T09:41:22.702Z,73.60
2018-02-13T09:43:56.120Z,73.70
2018-02-13T09:46:34.515Z,73.50
2018-02-13T09:49:15.244Z,74.00
2018-02-13T09:51:54.955Z,73.40
2018-02-13T09:54:36.924Z,73.00
2018-02-13T09:57:16.187Z,71.90
2018-02-13T09:59:55.854Z,69.80
2018-02-13T10:02:34.065Z,66.60
2018-02-13T10:05:12.911Z,62.60
2018-02-13T10:07:47.059Z,62.60
2018-02-13T10:10:26.584Z,59.70
2018-02-13T10:13:05.446Z,59.40
2018-02-13T10:15:40.146Z,58.00
2018-02-13T10:18:17.353Z,56.70
2018-02-13T10:20:57.605Z,55.00
2018-02-13T10:23:35.816Z,52.50
2018-02-13T10:26:13.419Z,51.70
2018-02-13T10:28:47.182Z,55.40
2018-02-13T10:31:28.160Z,53.00
2018-02-13T10:34:08.473Z,54.80
2018-02-13T10:36:46.490Z,57.40
2018-02-13T10:39:23.747Z,55.00
2018-02-13T10:42:04.084Z,54.40
2018-02-13T10:44:34.017Z,55.90
2018-02-13T10:47:15.322Z,55.40
2018-02-13T10:49:54.648Z,53.70
2018-02-13T10:52:28.649Z,54.80
2018-02-13T10:55:06.693Z,54.80
2018-02-13T10:57:46.121Z,55.90
2018-02-13T11:00:25.037Z,53.60
2018-02-13T11:03:05.516Z,52.00
2018-02-13T11:05:40.211Z,52.00
2018-02-13T11:08:14.530Z,49.80
2018-02-13T11:10:54.352Z,50.10
2018-02-13T11:13:35.244Z,50.20
2018-02-13T11:16:16.838Z,52.40
2018-02-13T11:18:51.347Z,52.20
2018-02-13T11:21:29.741Z,52.20
2018-02-13T11:24:08.644Z,53.60
2018-02-13T11:26:43.429Z,53.00
2018-02-13T11:29:27.761Z,53.80
2018-02-13T11:32:04.869Z,53.80
2018-02-13T11:34:39.545Z,50.90
2018-02-13T11:37:17.743Z,50.90
2018-02-13T11:39:52.003Z,50.90
2018-02-13T11:42:32.047Z,52.60
2018-02-13T11:45:07.706Z,51.70
2018-02-13T11:47:43.773Z,52.20
2018-02-13T11:50:23.386Z,51.80
2018-02-13T11:52:59.044Z,51.70
2018-02-13T11:55:38.350Z,54.30
2018-02-13T11:58:17.348Z,51.70
2018-02-13T12:00:54.624Z,51.40
2018-02-13T12:03:36.700Z,51.30
2018-02-13T12:06:10.096Z,51.40
2018-02-13T12:08:49.002Z,49.80
2018-02-13T12:11:28.530Z,49.80
2018-02-13T12:14:02.426Z,50.20
2018-02-13T12:16:36.303Z,48.80
2018-02-13T12:19:16.408Z,49.30
2018-02-13T12:21:58.162Z,49.30
2018-02-13T12:24:31.430Z,48.70
2018-02-13T12:27:06.876Z,48.60
2018-02-13T12:29:41.391Z,49.50
2018-02-13T12:32:15.504Z,49.90
2018-02-13T12:34:54.369Z,50.70
2018-02-13T12:37:28.617Z,50.70
2018-02-13T12:40:10.757Z,51.20
2018-02-13T12:42:47.894Z,51.30
2018-02-13T12:45:26.694Z,51.60
2018-02-13T12:48:07.792Z,52.00
2018-02-13T12:50:47.053Z,49.60
2018-02-13T12:53:22.060Z,50.60
2018-02-13T12:55:59.568Z,50.60
2018-02-13T12:58:37.705Z,51.50
2018-02-13T13:01:16.421Z,52.80
2018-02-13T13:03:53.954Z,50.00
2018-02-13T13:06:33.950Z,51.00
2018-02-13T13:09:14.784Z,51.50
2018-02-13T13:11:55.534Z,51.60
2018-02-13T13:14:33.711Z,51.40
2018-02-13T13:17:13.448Z,50.90
2018-02-13T13:19:54.851Z,55.30
2018-02-13T13:22:39.171Z,54.50
2018-02-13T13:25:27.333Z,54.40
2018-02-13T13:28:11.073Z,53.00
2018-02-13T13:30:51.347Z,52.20
2018-02-13T13:33:29.380Z,52.20
2018-02-13T13:36:10.349Z,51.20
2018-02-13T13:38:44.469Z,53.20
2018-02-13T13:41:24.962Z,54.90
2018-02-13T13:44:03.760Z,55.50
2018-02-13T13:46:50.240Z,55.90
2018-02-13T13:49:33.021Z,56.60
2018-02-13T13:52:11.048Z,55.60
2018-02-13T13:54:53.228Z,54.80
2018-02-13T13:57:33.841Z,53.60
2018-02-13T14:00:15.345Z,53.60
2018-02-13T14:03:00.428Z,53.30
2018-02-13T14:05:40.917Z,53.40
2018-02-13T14:08:21.692Z,52.50
2018-02-13T14:11:02.726Z,52.50
2018-02-13T14:13:42.031Z,52.30
2018-02-13T14:16:28.802Z,51.10
2018-02-13T14:19:18.546Z,51.00
2018-02-13T14:22:06.875Z,51.00
2018-02-13T14:24:45.658Z,51.40
2018-02-13T14:27:28.361Z,51.30
2018-02-13T14:30:12.609Z,51.80
2018-02-13T14:32:51.434Z,51.80
2018-02-13T14:35:32.428Z,50.20
2018-02-13T14:38:19.320Z,50.10
2018-02-13T14:41:05.683Z,50.20
2018-02-13T14:43:41.493Z,50.10
2018-02-13T14:46:21.604Z,49.90
2018-02-13T14:49:04.325Z,49.70
2018-02-13T14:51:44.905Z,49.00
2018-02-13T14:54:24.980Z,51.10
2018-02-13T14:56:58.085Z,51.00
2018-02-13T15:00:20.356Z,48.90
2018-02-13T15:03:14.828Z,49.10
2018-02-13T15:06:09.229Z,48.20
2018-02-13T15:09:02.677Z,46.20
2018-02-13T15:11:42.902Z,46.10
2018-02-13T15:14:25.987Z,47.20
2018-02-13T15:17:14.045Z,48.80
2018-02-13T15:20:01.749Z,52.20
2018-02-13T15:23:01.363Z,52.20
2018-02-13T15:25:55.412Z,52.10
2018-02-13T15:28:43.176Z,52.70
2018-02-13T15:34:46.869Z,52.50
2018-02-13T15:37:22.733Z,53.70
2018-02-13T15:40:16.593Z,54.70
2018-02-13T15:43:00.746Z,56.30
2018-02-13T15:45:46.240Z,56.20
2018-02-13T15:48:27.463Z,56.60
2018-02-13T15:51:18.393Z,57.20
2018-02-13T15:53:55.055Z,57.20
2018-02-13T15:56:36.547Z,57.80
2018-02-13T15:59:19.571Z,58.10
2018-02-13T16:02:00.804Z,58.70
2018-02-13T16:04:35.853Z,58.70
2018-02-13T16:07:15.214Z,58.20
2018-02-13T16:09:56.258Z,58.40
2018-02-13T16:12:36.527Z,58.40
2018-02-13T16:15:15.007Z,58.20
2018-02-13T16:17:55.975Z,58.20
2018-02-13T16:20:33.981Z,58.20
2018-02-13T16:23:17.427Z,59.00
2018-02-13T16:25:54.894Z,59.10
2018-02-13T16:28:36.665Z,59.30
2018-02-13T16:31:16.310Z,59.00
2018-02-13T16:33:55.208Z,59.40
2018-02-13T16:36:30.612Z,59.40
2018-02-13T16:39:09.899Z,59.60
2018-02-13T16:41:42.442Z,59.70
2018-02-13T16:44:23.272Z,59.70
2018-02-13T16:47:02.961Z,59.80
2018-02-13T16:49:43.939Z,60.20
2018-02-13T16:52:24.442Z,60.70
2018-02-13T16:54:58.064Z,60.30
2018-02-13T16:57:35.001Z,61.10
2018-02-13T17:00:20.291Z,62.30
2018-02-13T17:02:55.164Z,62.20
2018-02-13T17:05:37.617Z,62.60
2018-02-13T17:08:13.581Z,63.50
2018-02-13T17:10:47.574Z,63.90
2018-02-13T17:13:28.740Z,64.50
2018-02-13T17:16:05.110Z,64.30
2018-02-13T17:18:44.360Z,64.70
2018-02-13T17:21:25.808Z,66.00
2018-02-13T17:24:08.572Z,66.00
2018-02-13T17:26:42.252Z,66.70
2018-02-13T17:29:22.381Z,67.20
2018-02-13T17:32:02.654Z,67.50
2018-02-13T17:34:35.691Z,67.50
2018-02-13T17:37:12.098Z,67.30
2018-02-13T17:39:51.997Z,67.40
2018-02-13T17:42:33.072Z,67.40
2018-02-13T17:45:11.420Z,67.40
2018-02-13T17:47:50.510Z,67.30
2018-02-13T17:50:29.333Z,67.00
2018-02-13T17:53:11.957Z,67.20
2018-02-13T17:55:44.129Z,67.40
2018-02-13T17:58:23.497Z,67.70
2018-02-13T18:01:03.813Z,67.80
2018-02-13T18:03:37.815Z,68.10
2018-02-13T18:06:15.876Z,68.50
2018-02-13T18:08:56.347Z,68.70
2018-02-13T18:11:35.958Z,68.80
2018-02-13T18:14:17.958Z,68.90
2018-02-13T18:16:57.104Z,68.80
2018-02-13T18:19:40.186Z,68.90
2018-02-13T18:22:17.716Z,68.60
2018-02-13T18:24:52.046Z,68.60
2018-02-13T18:27:24.926Z,68.50
2018-02-13T18:30:01.846Z,68.60
2018-02-13T18:32:42.156Z,68.70
2018-02-13T18:35:23.157Z,68.70
2018-02-13T18:37:57.722Z,69.50
2018-02-13T18:40:36.523Z,69.50
2018-02-13T18:43:15.430Z,70.00
2018-02-13T18:45:55.292Z,70.70
2018-02-13T18:48:36.900Z,71.00
2018-02-13T18:51:18.659Z,71.00
2018-02-13T18:53:57.992Z,71.50
2018-02-13T18:56:38.920Z,71.90
2018-02-13T18:59:16.860Z,71.80
2018-02-13T19:01:51.859Z,72.40
2018-02-13T19:04:29.848Z,73.00
2018-02-13T19:07:05.635Z,72.80
2018-02-13T19:09:45.947Z,73.20
2018-02-13T19:12:19.792Z,73.60
2018-02-13T19:14:59.248Z,74.00
2018-02-13T19:17:37.978Z,74.10
2018-02-13T19:20:14.776Z,74.40
2018-02-13T19:22:51.504Z,75.20
2018-02-13T19:25:28.476Z,74.80
2018-02-13T19:28:07.307Z,75.10
2018-02-13T19:30:46.338Z,75.20
2018-02-13T19:33:19.552Z,75.30
2018-02-13T19:35:52.993Z,75.60
2018-02-13T19:38:31.410Z,75.60
2018-02-13T19:41:09.022Z,76.10
2018-02-13T19:43:44.367Z,76.40
2018-02-13T19:46:22.863Z,76.60
2018-02-13T19:48:59.703Z,76.60
2018-02-13T19:51:38.383Z,76.70
2018-02-13T19:54:11.447Z,76.70
2018-02-13T19:56:52.019Z,76.90
2018-02-13T19:59:30.133Z,76.90
2018-02-13T20:02:03.251Z,77.10
2018-02-13T20:04:41.175Z,76.70
2018-02-13T20:07:19.011Z,77.10
2018-02-13T20:09:57.407Z,77.10
2018-02-13T20:12:36.413Z,77.20
2018-02-13T20:15:11.165Z,77.40
2018-02-13T20:17:49.812Z,77.30
2018-02-13T20:20:32.038Z,77.10
2018-02-13T20:23:10.954Z,77.20
2018-02-13T20:25:45.884Z,77.30
2018-02-13T20:28:19.444Z,77.50
2018-02-13T20:31:00.228Z,77.60
2018-02-13T20:33:39.011Z,77.50
2018-02-13T20:36:19.473Z,77.50
2018-02-13T20:38:59.890Z,77.40
2018-02-13T20:41:39.838Z,77.40
2018-02-13T20:44:19.265Z,77.40
2018-02-13T20:46:58.543Z,77.50
2018-02-13T20:49:38.679Z,77.00
2018-02-13T20:52:17.743Z,77.50
2018-02-13T20:54:56.247Z,77.10
2018-02-13T20:57:34.586Z,77.00
2018-02-13T21:00:08.857Z,77.00
2018-02-13T21:02:42.826Z,76.80
2018-02-13T21:05:15.699Z,77.00
2018-02-13T21:07:50.531Z,76.70
2018-02-13T21:10:22.849Z,76.70
2018-02-13T21:13:01.749Z,76.60
2018-02-13T21:15:44.366Z,76.50
2018-02-13T21:18:16.824Z,76.90
2018-02-13T21:20:55.419Z,76.90
2018-02-13T21:23:33.765Z,76.90
2018-02-13T21:26:12.244Z,77.20
2018-02-13T21:28:51.739Z,77.40
2018-02-13T21:31:32.511Z,77.40
2018-02-13T21:34:12.256Z,77.40
2018-02-13T21:36:46.402Z,77.40
2018-02-13T21:39:21.062Z,77.60
2018-02-13T21:42:02.376Z,77.60
2018-02-13T21:44:42.529Z,77.80
2018-02-13T21:47:21.951Z,77.80
2018-02-13T21:50:03.557Z,78.80
2018-02-13T21:52:41.067Z,78.00
2018-02-13T21:55:21.943Z,78.00
2018-02-13T21:57:55.635Z,78.00
2018-02-13T22:00:35.521Z,78.20
2018-02-13T22:03:16.737Z,78.90
2018-02-13T22:05:55.528Z,78.30
2018-02-13T22:08:27.834Z,78.00
2018-02-13T22:11:06.062Z,78.60
2018-02-13T22:13:39.504Z,78.90
2018-02-13T22:16:14.190Z,79.00
2018-02-13T22:18:49.564Z,79.00
2018-02-13T22:21:31.682Z,79.90
2018-02-13T22:24:10.344Z,79.00
2018-02-13T22:26:50.530Z,79.40
2018-02-13T22:29:29.825Z,79.60
2018-02-13T22:32:07.482Z,79.60
2018-02-13T22:34:42.147Z,80.00
2018-02-13T22:37:19.192Z,80.00
2018-02-13T22:39:58.803Z,80.20
2018-02-13T22:42:39.747Z,80.40
2018-02-13T22:45:12.299Z,80.70
2018-02-13T22:47:46.875Z,81.10
2018-02-13T22:50:20.067Z,81.40
2018-02-13T22:52:59.168Z,81.40
2018-02-13T22:55:35.958Z,81.40
2018-02-13T22:58:12.821Z,81.10
2018-02-13T23:00:49.740Z,81.70
2018-02-13T23:03:28.913Z,81.20
2018-02-13T23:06:07.138Z,81.10
2018-02-13T23:08:47.225Z,81.20
2018-02-13T23:11:25.661Z,81.40
2018-02-13T23:14:03.094Z,81.30
2018-02-13T23:16:36.206Z,81.40
2018-02-13T23:19:18.399Z,81.50
2018-02-13T23:21:56.791Z,81.50
2018-02-13T23:24:37.234Z,81.70
2018-02-13T23:27:17.592Z,81.90
2018-02-13T23:29:54.804Z,81.90
2018-02-13T23:32:28.140Z,82.00
2018-02-13T23:35:07.407Z,82.00
2018-02-13T23:37:47.002Z,81.90
2018-02-13T23:40:20.231Z,82.10
2018-02-13T23:42:57.482Z,82.00
2018-02-13T23:45:33.199Z,82.20
2018-02-13T23:48:05.829Z,82.10
2018-02-13T23:50:38.192Z,82.30
2018-02-13T23:53:16.250Z,82.50
2018-02-13T23:55:56.890Z,82.30
2018-02-13T23:58:34.359Z,82.20
